createdAt,value
2023-02-09T00:01:26.575Z,0.6
2023-02-09T00:06:26.579Z,0.6
2023-02-09T00:11:26.571Z,0.6
2023-02-09T00:16:26.672Z,0.6
2023-02-09T00:21:26.575Z,0.5
2023-02-09T00:26:26.560Z,0.5
2023-02-09T00:31:26.607Z,0.5
2023-02-09T00:36:26.586Z,0.5
2023-02-09T00:41:26.558Z,0.4
2023-02-09T00:46:26.577Z,0.4
2023-02-09T00:51:26.571Z,0.4
2023-02-09T00:56:26.598Z,0.4
2023-02-09T01:01:26.642Z,0.4
2023-02-09T01:06:26.589Z,0.3
2023-02-09T01:11:26.563Z,0.3
2023-02-09T01:16:26.620Z,0.3
2023-02-09T01:21:26.542Z,0.3
2023-02-09T01:26:26.562Z,0.3
2023-02-09T01:31:26.736Z,0.3
2023-02-09T01:36:26.585Z,0.2
2023-02-09T01:41:26.562Z,0.2
2023-02-09T01:46:26.618Z,0.1
2023-02-09T01:51:26.559Z,0.1
2023-02-09T01:56:26.583Z,0.1
2023-02-09T02:01:26.579Z,0.1
2023-02-09T02:06:26.608Z,0.1
2023-02-09T02:11:26.566Z,0.1
2023-02-09T02:16:26.611Z,0.1
2023-02-09T02:21:26.559Z,0
2023-02-09T02:26:26.614Z,0
2023-02-09T02:31:26.645Z,-0.1
2023-02-09T02:36:26.605Z,-0.1
2023-02-09T02:41:26.568Z,-0.1
2023-02-09T02:46:26.682Z,-0.1
2023-02-09T02:51:26.567Z,-0.1
2023-02-09T02:56:26.605Z,-0.1
2023-02-09T03:01:26.608Z,-0.2
2023-02-09T03:06:26.599Z,-0.2
2023-02-09T03:11:26.593Z,-0.3
2023-02-09T03:16:26.767Z,-0.3
2023-02-09T03:21:26.584Z,-0.3
2023-02-09T03:26:26.610Z,-0.3
2023-02-09T03:31:26.799Z,-0.4
2023-02-09T03:36:26.717Z,-0.4
2023-02-09T03:41:26.754Z,-0.4
2023-02-09T03:46:26.838Z,-0.4
2023-02-09T03:51:26.802Z,-0.4
2023-02-09T03:56:26.964Z,-0.4
2023-02-09T04:01:26.897Z,-0.5
2023-02-09T04:06:27.019Z,-0.5
2023-02-09T04:11:26.958Z,-0.5
2023-02-09T04:16:27.097Z,-0.6
2023-02-09T04:21:26.909Z,-0.6
2023-02-09T04:26:26.934Z,-0.6
2023-02-09T04:31:27.148Z,-0.6
2023-02-09T04:36:26.936Z,-0.6
2023-02-09T04:41:27.147Z,-0.6
2023-02-09T04:46:26.905Z,-0.6
2023-02-09T04:51:26.909Z,-0.6
2023-02-09T04:56:26.959Z,-0.7
2023-02-09T05:01:26.979Z,-0.7
2023-02-09T05:06:26.931Z,-0.7
2023-02-09T05:11:26.911Z,-0.7
2023-02-09T05:16:26.984Z,-0.8
2023-02-09T05:21:26.906Z,-0.8
2023-02-09T05:26:26.922Z,-0.8
2023-02-09T05:31:27.000Z,-0.8
2023-02-09T05:36:26.934Z,-0.8
2023-02-09T05:41:26.900Z,-0.8
2023-02-09T05:46:26.957Z,-0.8
2023-02-09T05:51:26.891Z,-0.8
2023-02-09T05:56:26.913Z,-0.9
2023-02-09T06:01:26.879Z,-0.9
2023-02-09T06:06:26.901Z,-0.9
2023-02-09T06:11:26.905Z,-0.9
2023-02-09T06:16:26.908Z,-0.9
2023-02-09T06:21:26.936Z,-0.9
2023-02-09T06:26:26.893Z,-0.9
2023-02-09T06:31:26.990Z,-0.9
2023-02-09T06:36:26.912Z,-0.9
2023-02-09T06:41:26.870Z,-0.9
2023-02-09T06:46:26.947Z,-0.9
2023-02-09T06:51:26.876Z,-0.9
2023-02-09T06:56:26.958Z,-0.9
2023-02-09T07:01:26.894Z,-0.9
2023-02-09T07:06:26.907Z,-1
2023-02-09T07:11:26.897Z,-1
2023-02-09T07:16:26.938Z,-0.9
2023-02-09T07:21:26.881Z,-1
2023-02-09T07:26:26.885Z,-0.9
2023-02-09T07:31:26.979Z,-1
2023-02-09T07:36:26.909Z,-1
2023-02-09T07:41:26.877Z,-0.9
2023-02-09T07:46:26.967Z,-0.9
2023-02-09T07:51:26.859Z,-0.9
2023-02-09T07:56:26.964Z,-0.9
2023-02-09T08:01:27.011Z,-0.9
2023-02-09T08:06:39.788Z,-0.9
2023-02-09T08:11:26.953Z,-0.9
2023-02-09T08:16:27.063Z,-0.8
2023-02-09T08:21:26.956Z,-0.8
2023-02-09T08:26:26.990Z,-0.8
2023-02-09T08:31:27.009Z,-0.8
2023-02-09T08:36:26.935Z,-0.7
2023-02-09T08:41:26.898Z,-0.6
2023-02-09T08:46:27.284Z,-0.6
2023-02-09T08:51:26.912Z,-0.6
2023-02-09T08:56:26.926Z,-0.5
2023-02-09T09:01:26.998Z,-0.4
2023-02-09T09:06:26.955Z,-0.4
2023-02-09T09:11:26.898Z,-0.4
2023-02-09T09:16:27.527Z,-0.3
2023-02-09T09:21:26.939Z,-0.3
2023-02-09T09:26:26.914Z,-0.2
2023-02-09T09:31:27.030Z,-0.1
2023-02-09T09:36:26.937Z,0
2023-02-09T09:41:26.887Z,0.1
2023-02-09T09:46:27.124Z,0.1
2023-02-09T09:51:26.907Z,0.2
2023-02-09T09:56:27.292Z,0.3
2023-02-09T10:01:26.969Z,0.3
2023-02-09T10:06:26.895Z,0.4
2023-02-09T10:11:26.918Z,0.5
2023-02-09T10:16:27.012Z,0.6
2023-02-09T10:21:26.876Z,0.7
2023-02-09T10:26:26.890Z,0.8
2023-02-09T10:31:26.993Z,0.8
2023-02-09T10:36:26.938Z,0.9
2023-02-09T10:41:26.872Z,1
2023-02-09T10:46:26.959Z,1.1
2023-02-09T10:51:26.884Z,1.2
2023-02-09T10:56:26.888Z,1.3
2023-02-09T11:01:27.102Z,1.4
2023-02-09T11:06:26.874Z,1.4
2023-02-09T11:11:26.892Z,1.6
2023-02-09T11:16:26.958Z,1.6
2023-02-09T11:21:26.888Z,1.8
2023-02-09T11:26:26.873Z,1.8
2023-02-09T11:31:27.016Z,1.9
2023-02-09T11:36:26.901Z,2
2023-02-09T11:41:27.352Z,2.1
2023-02-09T11:46:27.092Z,2.3
2023-02-09T11:51:26.984Z,2.3
2023-02-09T11:56:26.892Z,2.4
2023-02-09T12:01:26.876Z,2.5
2023-02-09T12:06:26.925Z,2.6
2023-02-09T12:11:26.854Z,2.8
2023-02-09T12:16:26.938Z,2.9
2023-02-09T12:21:26.852Z,2.9
2023-02-09T12:26:26.855Z,3.1
2023-02-09T12:31:27.019Z,3.2
2023-02-09T12:36:26.865Z,3.3
2023-02-09T12:41:26.842Z,3.4
2023-02-09T12:46:27.024Z,3.4
2023-02-09T12:51:26.830Z,3.6
2023-02-09T12:56:26.875Z,3.7
2023-02-09T13:01:26.863Z,3.8
2023-02-09T13:06:26.831Z,3.9
2023-02-09T13:11:26.826Z,4
2023-02-09T13:16:26.907Z,4.1
2023-02-09T13:21:27.242Z,4.2
2023-02-09T13:26:26.830Z,4.3
2023-02-09T13:31:26.850Z,4.4
2023-02-09T13:36:26.848Z,4.4
2023-02-09T13:41:26.852Z,4.5
2023-02-09T13:46:26.945Z,4.6
2023-02-09T13:51:26.819Z,4.7
2023-02-09T13:56:26.960Z,4.7
2023-02-09T14:01:26.866Z,4.8
2023-02-09T14:06:26.812Z,4.8
2023-02-09T14:11:40.287Z,4.9
2023-02-09T14:16:26.850Z,4.9
2023-02-09T14:21:26.822Z,4.9
2023-02-09T14:26:26.809Z,4.9
2023-02-09T14:31:26.813Z,4.9
2023-02-09T14:36:26.847Z,5
2023-02-09T14:41:26.794Z,5
2023-02-09T14:46:26.904Z,5
2023-02-09T14:51:26.790Z,5
2023-02-09T14:56:26.828Z,5
2023-02-09T15:01:26.841Z,5
2023-02-09T15:06:26.791Z,5.1
2023-02-09T15:11:26.824Z,5
2023-02-09T15:16:26.936Z,5
2023-02-09T15:21:26.785Z,5
2023-02-09T15:26:26.902Z,5
2023-02-09T15:31:26.847Z,5
2023-02-09T15:36:26.815Z,5
2023-02-09T15:41:26.785Z,4.9
2023-02-09T15:46:26.845Z,4.9
2023-02-09T15:51:26.781Z,4.9
2023-02-09T15:56:26.880Z,4.9
2023-02-09T16:01:26.924Z,4.9
2023-02-09T16:06:26.857Z,4.8
2023-02-09T16:11:26.826Z,4.8
2023-02-09T16:16:26.908Z,4.8
2023-02-09T16:21:26.860Z,4.7
2023-02-09T16:26:26.813Z,4.6
2023-02-09T16:31:26.923Z,4.6
2023-02-09T16:36:27.013Z,4.6
2023-02-09T16:41:26.863Z,4.5
2023-02-09T16:46:26.850Z,4.4
2023-02-09T16:51:26.818Z,4.4
2023-02-09T16:56:26.952Z,4.3
2023-02-09T17:01:26.825Z,4.3
2023-02-09T17:06:26.809Z,4.3
2023-02-09T17:11:26.824Z,4.2
2023-02-09T17:16:26.938Z,4.2
2023-02-09T17:21:26.802Z,4.1
2023-02-09T17:26:26.867Z,4.1
2023-02-09T17:31:26.833Z,4
2023-02-09T17:36:28.816Z,4
2023-02-09T17:41:26.829Z,3.9
2023-02-09T17:46:26.863Z,3.9
2023-02-09T17:51:26.809Z,3.9
2023-02-09T17:56:26.924Z,3.8
2023-02-09T18:01:27.326Z,3.8
2023-02-09T18:06:26.820Z,3.7
2023-02-09T18:11:26.797Z,3.7
2023-02-09T18:16:26.890Z,3.6
2023-02-09T18:21:26.793Z,3.6
2023-02-09T18:26:26.965Z,3.5
2023-02-09T18:31:26.802Z,3.5
2023-02-09T18:36:26.828Z,3.4
2023-02-09T18:41:26.785Z,3.4
2023-02-09T18:46:26.864Z,3.3
2023-02-09T18:51:26.783Z,3.3
2023-02-09T18:56:26.920Z,3.3
2023-02-09T19:01:26.900Z,3.2
2023-02-09T19:06:26.839Z,3.2
2023-02-09T19:11:26.846Z,3.1
2023-02-09T19:16:26.987Z,3.1
2023-02-09T19:21:26.832Z,3.1
2023-02-09T19:26:26.848Z,3
2023-02-09T19:31:26.880Z,2.9
2023-02-09T19:36:27.244Z,2.9
2023-02-09T19:41:26.841Z,2.9
2023-02-09T19:46:26.925Z,2.9
2023-02-09T19:51:26.822Z,2.8
2023-02-09T19:56:26.872Z,2.8
2023-02-09T20:01:26.970Z,2.8
2023-02-09T20:06:26.861Z,2.8
2023-02-09T20:11:26.831Z,2.7
2023-02-09T20:16:26.880Z,2.7
2023-02-09T20:21:26.835Z,2.6
2023-02-09T20:26:26.837Z,2.6
2023-02-09T20:31:26.913Z,2.6
2023-02-09T20:36:26.855Z,2.6
2023-02-09T20:41:26.834Z,2.5
2023-02-09T20:46:26.832Z,2.4
2023-02-09T20:51:26.894Z,2.4
2023-02-09T20:56:26.848Z,2.4
2023-02-09T21:01:26.949Z,2.4
2023-02-09T21:06:26.840Z,2.4
2023-02-09T21:11:26.926Z,2.3
2023-02-09T21:16:26.924Z,2.3
2023-02-09T21:21:26.839Z,2.3
2023-02-09T21:26:26.849Z,2.3
2023-02-09T21:31:27.005Z,2.2
2023-02-09T21:36:26.884Z,2.2
2023-02-09T21:41:26.831Z,2.2
2023-02-09T21:46:26.840Z,2.1
2023-02-09T21:51:26.836Z,2.1
2023-02-09T21:56:26.941Z,2.1
2023-02-09T22:01:26.909Z,2.1
2023-02-09T22:06:26.833Z,2.1
2023-02-09T22:11:26.819Z,2.1
2023-02-09T22:16:26.880Z,2.1
2023-02-09T22:21:26.815Z,2.1
2023-02-09T22:26:26.833Z,2
2023-02-09T22:31:26.846Z,2
2023-02-09T22:36:26.852Z,2
2023-02-09T22:41:26.831Z,2
2023-02-09T22:46:26.842Z,2
2023-02-09T22:51:26.817Z,2
2023-02-09T22:56:26.865Z,2
2023-02-09T23:01:26.873Z,2
2023-02-09T23:06:27.233Z,2
2023-02-09T23:11:26.843Z,2
2023-02-09T23:16:26.885Z,2
2023-02-09T23:21:26.846Z,2
2023-02-09T23:26:26.846Z,2
2023-02-09T23:31:26.965Z,2
2023-02-09T23:36:26.885Z,2
2023-02-09T23:41:26.871Z,2.1
2023-02-09T23:46:28.529Z,2.1
2023-02-09T23:51:26.862Z,2.1
2023-02-09T23:56:26.886Z,2.1
